createdAt,value
2018-01-12T00:02:18.552Z,54.33
2018-01-12T00:04:45.998Z,51.73
2018-01-12T00:07:13.468Z,60.20
2018-01-12T00:09:40.906Z,54.80
2018-01-12T00:12:08.596Z,55.17
2018-01-12T00:14:36.042Z,58.83
2018-01-12T00:17:03.499Z,52.60
2018-01-12T00:19:30.953Z,57.63
2018-01-12T00:21:58.376Z,57.93
2018-01-12T00:24:26.592Z,56.43
2018-01-12T00:26:54.350Z,55.37
2018-01-12T00:29:21.784Z,56.27
2018-01-12T00:31:49.252Z,55.87
2018-01-12T00:34:16.696Z,54.63
2018-01-12T00:36:44.180Z,56.13
2018-01-12T00:39:11.616Z,56.70
2018-01-12T00:41:39.312Z,54.03
2018-01-12T00:44:06.777Z,54.13
2018-01-12T00:46:34.224Z,54.73
2018-01-12T00:49:01.660Z,53.90
2018-01-12T00:51:29.092Z,51.10
2018-01-12T00:53:57.288Z,54.30
2018-01-12T00:56:24.968Z,53.73
2018-01-12T00:58:52.400Z,54.17
2018-01-12T01:01:19.895Z,55.53
2018-01-12T01:03:47.644Z,53.67
2018-01-12T01:06:15.076Z,52.80
2018-01-12T01:08:42.558Z,50.93
2018-01-12T01:11:10.005Z,55.17
2018-01-12T01:13:37.473Z,54.03
2018-01-12T01:16:04.900Z,50.00
2018-01-12T01:18:32.592Z,53.67
2018-01-12T01:21:00.023Z,53.30
2018-01-12T01:23:27.461Z,53.77
2018-01-12T01:25:55.676Z,53.03
2018-01-12T01:28:23.113Z,52.33
2018-01-12T01:30:50.540Z,49.47
2018-01-12T01:33:19.084Z,53.07
2018-01-12T01:35:46.533Z,49.90
2018-01-12T01:38:13.968Z,53.93
2018-01-12T01:40:41.408Z,51.90
2018-01-12T01:43:08.905Z,51.57
2018-01-12T01:45:36.336Z,51.03
2018-01-12T01:48:04.126Z,52.60
2018-01-12T01:50:31.582Z,53.90
2018-01-12T01:52:59.019Z,53.43
2018-01-12T01:55:26.513Z,51.10
2018-01-12T01:57:53.951Z,50.43
2018-01-12T02:00:21.413Z,50.37
2018-01-12T02:02:49.177Z,50.03
2018-01-12T02:05:16.633Z,53.37
2018-01-12T02:07:44.092Z,49.23
2018-01-12T02:10:11.537Z,52.40
2018-01-12T02:12:38.964Z,51.33
2018-01-12T02:15:07.171Z,54.27
2018-01-12T02:17:34.984Z,50.90
2018-01-12T02:20:02.467Z,51.10
2018-01-12T02:22:29.856Z,50.43
2018-01-12T02:24:57.305Z,54.70
2018-01-12T02:27:24.732Z,50.87
2018-01-12T02:29:52.936Z,51.27
2018-01-12T02:32:20.406Z,50.03
2018-01-12T02:34:47.860Z,47.43
2018-01-12T02:37:15.320Z,51.40
2018-01-12T02:39:43.084Z,49.70
2018-01-12T02:42:10.513Z,50.77
2018-01-12T02:44:37.996Z,47.77
2018-01-12T02:47:05.450Z,48.67
2018-01-12T02:49:32.921Z,50.57
2018-01-12T02:52:00.348Z,50.97
2018-01-12T02:54:28.137Z,46.53
2018-01-12T02:56:55.594Z,48.93
2018-01-12T02:59:23.025Z,51.13
2018-01-12T03:01:50.508Z,51.53
2018-01-12T03:04:17.937Z,50.53
2018-01-12T03:06:45.372Z,48.47
2018-01-12T03:09:13.576Z,49.20
2018-01-12T03:11:41.055Z,49.63
2018-01-12T03:14:08.510Z,49.57
2018-01-12T03:16:35.952Z,48.80
2018-01-12T03:19:03.425Z,48.30
2018-01-12T03:21:30.869Z,49.40
2018-01-12T03:23:58.642Z,49.13
2018-01-12T03:26:26.080Z,48.80
2018-01-12T03:28:53.508Z,49.03
2018-01-12T03:31:21.727Z,48.53
2018-01-12T03:33:49.140Z,46.90
2018-01-12T03:36:17.335Z,47.27
2018-01-12T03:38:45.026Z,48.30
2018-01-12T03:41:12.470Z,51.10
2018-01-12T03:43:39.892Z,51.90
2018-01-12T03:46:08.416Z,49.20
2018-01-12T03:48:35.890Z,49.60
2018-01-12T03:51:03.344Z,47.33
2018-01-12T03:53:30.904Z,48.53
2018-01-12T03:55:58.328Z,48.43
2018-01-12T03:58:25.753Z,46.97
2018-01-12T04:00:54.197Z,46.37
2018-01-12T04:03:21.653Z,47.73
2018-01-12T04:05:49.091Z,47.70
2018-01-12T04:08:16.532Z,49.67
2018-01-12T04:10:44.021Z,47.23
2018-01-12T04:13:11.451Z,50.97
2018-01-12T04:15:39.232Z,49.00
2018-01-12T04:18:06.664Z,50.13
2018-01-12T04:20:34.088Z,49.10
2018-01-12T04:23:01.615Z,50.50
2018-01-12T04:25:29.072Z,49.17
2018-01-12T04:27:56.523Z,47.77
2018-01-12T04:30:24.285Z,48.43
2018-01-12T04:32:51.740Z,50.40
2018-01-12T04:35:19.181Z,48.77
2018-01-12T04:37:46.620Z,49.83
2018-01-12T04:40:14.053Z,47.93
2018-01-12T04:42:42.260Z,52.00
2018-01-12T04:45:09.930Z,51.17
2018-01-12T04:47:37.408Z,50.57
2018-01-12T04:50:04.836Z,51.50
2018-01-12T04:52:32.320Z,50.87
2018-01-12T04:54:59.780Z,51.97
2018-01-12T04:57:27.210Z,52.23
2018-01-12T04:59:54.708Z,51.07
2018-01-12T05:02:22.132Z,54.27
2018-01-12T05:04:49.608Z,50.80
2018-01-12T05:07:17.272Z,53.33
2018-01-12T05:09:44.732Z,52.90
2018-01-12T05:12:12.156Z,51.87
2018-01-12T05:14:39.600Z,53.93
2018-01-12T05:17:07.818Z,51.60
2018-01-12T05:19:35.247Z,54.63
2018-01-12T05:22:02.936Z,55.13
2018-01-12T05:24:30.368Z,52.50
2018-01-12T05:26:57.854Z,53.90
2018-01-12T05:29:25.297Z,57.10
2018-01-12T05:31:52.728Z,52.57
2018-01-12T05:34:20.166Z,52.27
2018-01-12T05:36:48.392Z,51.77
2018-01-12T05:39:15.873Z,52.17
2018-01-12T05:41:43.408Z,52.07
2018-01-12T05:44:10.859Z,49.87
2018-01-12T05:46:38.290Z,52.97
2018-01-12T05:49:06.492Z,52.90
2018-01-12T05:51:33.942Z,50.87
2018-01-12T05:54:01.368Z,53.50
2018-01-12T05:56:29.560Z,51.33
2018-01-12T05:58:57.320Z,52.00
2018-01-12T06:01:36.667Z,50.77
2018-01-12T06:04:15.942Z,51.30
2018-01-12T06:06:43.376Z,50.53
2018-01-12T06:09:10.806Z,50.20
2018-01-12T06:11:38.600Z,50.37
2018-01-12T06:14:06.062Z,46.83
2018-01-12T06:16:33.521Z,50.63
2018-01-12T06:19:01.073Z,48.57
2018-01-12T06:21:28.507Z,46.33
2018-01-12T06:23:55.988Z,50.10
2018-01-12T06:26:23.450Z,50.27
2018-01-12T06:28:50.881Z,49.80
2018-01-12T06:31:18.360Z,50.17
2018-01-12T06:33:46.124Z,48.00
2018-01-12T06:36:13.581Z,48.80
2018-01-12T06:38:41.040Z,46.30
2018-01-12T06:41:08.492Z,46.43
2018-01-12T06:43:35.925Z,45.57
2018-01-12T06:46:03.412Z,47.57
2018-01-12T06:48:31.183Z,46.47
2018-01-12T06:50:58.622Z,43.13
2018-01-12T06:53:26.057Z,41.60
2018-01-12T06:55:54.367Z,41.73
2018-01-12T06:58:21.800Z,42.43
2018-01-12T07:00:49.240Z,44.20
2018-01-12T07:03:17.458Z,41.73
2018-01-12T07:05:44.912Z,40.83
2018-01-12T07:08:12.372Z,40.67
2018-01-12T07:10:40.137Z,42.30
2018-01-12T07:13:07.576Z,40.20
2018-01-12T07:15:35.004Z,40.43
2018-01-12T07:18:03.323Z,40.67
2018-01-12T07:20:42.572Z,39.33
2018-01-12T07:23:21.896Z,39.87
2018-01-12T07:25:49.345Z,42.37
2018-01-12T07:28:16.817Z,39.80
2018-01-12T07:30:44.266Z,40.63
2018-01-12T07:33:11.696Z,39.67
2018-01-12T07:35:39.183Z,41.17
2018-01-12T07:38:06.641Z,39.33
2018-01-12T07:40:34.069Z,42.83
2018-01-12T07:43:01.504Z,42.00
2018-01-12T07:45:29.731Z,41.97
2018-01-12T07:47:57.231Z,39.33
2018-01-12T07:50:24.623Z,43.20
2018-01-12T07:52:57.832Z,40.03
2018-01-12T07:55:25.284Z,40.73
2018-01-12T07:57:52.734Z,39.50
2018-01-12T08:00:25.916Z,43.37
2018-01-12T08:02:58.995Z,41.37
2018-01-12T08:05:26.468Z,38.77
2018-01-12T08:07:53.942Z,42.13
2018-01-12T08:10:21.404Z,41.73
2018-01-12T08:12:48.848Z,43.23
2018-01-12T08:15:16.317Z,42.17
2018-01-12T08:17:43.759Z,43.33
2018-01-12T08:20:11.233Z,44.03
2018-01-12T08:22:38.690Z,41.63
2018-01-12T08:25:06.151Z,42.37
2018-01-12T08:27:33.710Z,44.63
2018-01-12T08:30:01.156Z,45.00
2018-01-12T08:32:28.584Z,45.27
2018-01-12T08:34:56.072Z,46.90
2018-01-12T08:37:23.533Z,45.53
2018-01-12T08:39:50.963Z,48.97
2018-01-12T08:42:18.652Z,49.97
2018-01-12T08:44:46.084Z,49.07
2018-01-12T08:47:13.515Z,49.97
2018-01-12T08:49:41.832Z,51.13
2018-01-12T08:52:09.272Z,53.77
2018-01-12T08:54:36.752Z,48.03
2018-01-12T08:57:04.426Z,55.13
2018-01-12T08:59:31.861Z,56.30
2018-01-12T09:01:59.292Z,48.90
2018-01-12T09:04:26.791Z,54.67
2018-01-12T09:06:54.264Z,57.83
2018-01-12T09:09:21.680Z,61.53
2018-01-12T09:11:49.464Z,58.87
2018-01-12T09:14:28.737Z,60.47
2018-01-12T09:16:56.265Z,61.87
2018-01-12T09:19:29.376Z,58.73
2018-01-12T09:21:56.819Z,64.70
2018-01-12T09:24:24.252Z,67.13
2018-01-12T09:26:51.715Z,71.60
2018-01-12T09:29:19.140Z,66.07
2018-01-12T09:31:51.443Z,72.97
2018-01-12T09:34:30.780Z,60.57
2018-01-12T09:36:58.240Z,62.90
2018-01-12T09:39:37.636Z,61.13
2018-01-12T09:42:05.849Z,57.37
2018-01-12T09:44:33.268Z,64.20
2018-01-12T09:47:13.429Z,62.43
2018-01-12T09:49:49.424Z,59.00
2018-01-12T09:52:16.866Z,51.60
2018-01-12T09:54:44.336Z,54.70
2018-01-12T09:57:11.792Z,53.53
2018-01-12T09:59:43.947Z,51.73
2018-01-12T10:02:11.416Z,51.77
2018-01-12T10:04:38.876Z,50.80
2018-01-12T10:07:16.912Z,52.43
2018-01-12T10:09:47.112Z,51.00
2018-01-12T10:12:14.569Z,46.47
2018-01-12T10:14:42.011Z,43.80
2018-01-12T10:17:09.440Z,46.30
2018-01-12T10:22:30.596Z,41.73
2018-01-12T10:24:58.062Z,44.53
2018-01-12T10:27:25.516Z,41.20
2018-01-12T10:29:57.779Z,46.17
2018-01-12T10:32:26.151Z,46.10
2018-01-12T10:35:05.607Z,45.73
2018-01-12T10:37:33.116Z,42.70
2018-01-12T10:40:01.316Z,43.70
2018-01-12T10:42:28.888Z,43.97
2018-01-12T10:44:56.340Z,44.07
2018-01-12T10:47:26.384Z,43.53
2018-01-12T10:53:05.436Z,44.03
2018-01-12T10:55:33.205Z,43.30
2018-01-12T10:58:00.744Z,41.33
2018-01-12T11:00:32.016Z,39.43
2018-01-12T11:02:59.467Z,39.33
2018-01-12T11:05:26.892Z,40.00
2018-01-12T11:07:54.331Z,39.13
2018-01-12T11:10:22.013Z,38.37
2018-01-12T11:12:49.421Z,36.43
2018-01-12T11:15:16.856Z,35.17
2018-01-12T11:17:44.288Z,34.57
2018-01-12T11:20:11.729Z,35.57
2018-01-12T11:22:39.144Z,34.70
2018-01-12T11:25:06.579Z,34.87
2018-01-12T11:27:34.007Z,33.33
2018-01-12T11:30:01.428Z,32.50
2018-01-12T11:32:29.756Z,33.67
2018-01-12T11:34:57.207Z,35.73
2018-01-12T11:37:24.789Z,36.63
2018-01-12T11:39:52.324Z,35.60
2018-01-12T11:42:19.760Z,35.53
2018-01-12T11:44:47.261Z,33.90
2018-01-12T11:47:15.002Z,32.53
2018-01-12T11:49:42.451Z,31.63
2018-01-12T11:52:09.892Z,31.43
2018-01-12T11:54:37.372Z,29.10
2018-01-12T11:57:04.808Z,29.60
2018-01-12T11:59:32.239Z,30.63
2018-01-12T12:02:00.437Z,29.87
2018-01-12T12:04:27.868Z,31.57
2018-01-12T12:06:56.096Z,30.70
2018-01-12T12:09:23.552Z,31.03
2018-01-12T12:11:51.021Z,29.30
2018-01-12T12:14:18.447Z,27.83
2018-01-12T12:16:45.919Z,28.17
2018-01-12T12:19:13.356Z,26.87
2018-01-12T12:21:40.835Z,22.57
2018-01-12T12:24:08.276Z,24.60
2018-01-12T12:26:35.704Z,23.07
2018-01-12T12:29:03.929Z,24.13
2018-01-12T12:31:31.386Z,22.77
2018-01-12T12:33:58.832Z,21.63
2018-01-12T12:36:26.276Z,23.33
2018-01-12T12:38:53.712Z,20.80
2018-01-12T12:41:21.923Z,20.53
2018-01-12T12:43:49.393Z,22.03
2018-01-12T12:46:17.145Z,19.27
2018-01-12T12:48:44.572Z,19.00
2018-01-12T12:51:12.062Z,19.53
2018-01-12T12:53:39.536Z,21.40
2018-01-12T12:56:07.001Z,21.17
2018-01-12T12:58:34.429Z,19.97
2018-01-12T13:01:01.902Z,19.03
2018-01-12T13:03:29.332Z,19.67
2018-01-12T13:05:56.764Z,20.03
2018-01-12T13:08:24.992Z,18.70
2018-01-12T13:10:52.440Z,19.60
2018-01-12T13:13:19.876Z,20.27
2018-01-12T13:15:47.353Z,20.63
2018-01-12T13:18:14.843Z,19.67
2018-01-12T13:20:42.267Z,22.93
2018-01-12T13:23:09.762Z,21.17
2018-01-12T13:25:37.143Z,21.77
2018-01-12T13:28:04.580Z,21.40
2018-01-12T13:30:32.816Z,21.40
2018-01-12T13:33:00.386Z,21.87
2018-01-12T13:35:27.851Z,20.63
2018-01-12T13:37:55.298Z,19.87
2018-01-12T13:40:22.762Z,20.20
2018-01-12T13:42:50.193Z,22.23
2018-01-12T13:45:17.625Z,21.53
2018-01-12T13:47:45.057Z,21.87
2018-01-12T13:50:13.281Z,22.53
2018-01-12T13:52:40.692Z,20.97
2018-01-12T13:55:08.920Z,20.33
2018-01-12T13:57:36.376Z,21.87
2018-01-12T14:00:03.882Z,18.37
2018-01-12T14:02:32.112Z,19.03
2018-01-12T14:04:59.546Z,20.10
2018-01-12T14:07:27.006Z,20.63
2018-01-12T14:09:55.299Z,20.20
2018-01-12T14:12:22.736Z,19.10
2018-01-12T14:14:50.177Z,20.23
2018-01-12T14:17:18.382Z,20.10
2018-01-12T14:19:45.848Z,19.50
2018-01-12T14:22:13.295Z,19.57
2018-01-12T14:24:40.760Z,18.83
2018-01-12T14:27:08.188Z,18.23
2018-01-12T14:29:35.677Z,20.17
2018-01-12T14:32:03.129Z,20.30
2018-01-12T14:34:30.536Z,19.70
2018-01-12T14:36:58.760Z,21.00
2018-01-12T14:39:26.189Z,20.70
2018-01-12T14:41:53.620Z,21.33
2018-01-12T14:44:21.839Z,20.47
2018-01-12T14:46:49.256Z,19.33
2018-01-12T14:49:17.456Z,20.93
2018-01-12T14:51:44.936Z,21.07
2018-01-12T14:54:12.391Z,19.93
2018-01-12T14:56:39.845Z,21.90
2018-01-12T14:59:07.308Z,21.83
2018-01-12T15:01:34.768Z,20.97
2018-01-12T15:04:02.236Z,22.20
2018-01-12T15:06:29.996Z,20.00
2018-01-12T15:08:57.428Z,22.33
2018-01-12T15:11:24.912Z,21.47
2018-01-12T15:13:52.355Z,23.23
2018-01-12T15:16:19.816Z,21.17
2018-01-12T15:18:47.235Z,22.90
2018-01-12T15:21:15.678Z,23.03
2018-01-12T15:23:43.103Z,25.13
2018-01-12T15:26:10.531Z,26.80
2018-01-12T15:28:39.098Z,25.30
2018-01-12T15:31:06.513Z,20.63
2018-01-12T15:33:33.968Z,21.33
2018-01-12T15:36:01.417Z,20.00
2018-01-12T15:38:28.844Z,21.07
2018-01-12T15:40:57.056Z,23.43
2018-01-12T15:43:24.520Z,20.27
2018-01-12T15:45:51.954Z,19.67
2018-01-12T15:48:19.384Z,19.03
2018-01-12T15:50:47.590Z,20.73
2018-01-12T15:53:15.049Z,21.37
2018-01-12T15:55:42.516Z,18.83
2018-01-12T15:58:09.976Z,19.97
2018-01-12T16:00:37.530Z,23.40
2018-01-12T16:03:05.718Z,21.17
2018-01-12T16:05:33.156Z,17.73
2018-01-12T16:08:00.640Z,20.63
2018-01-12T16:10:28.100Z,24.87
2018-01-12T16:12:55.640Z,19.17
2018-01-12T16:15:23.076Z,19.90
2018-01-12T16:17:51.288Z,22.43
2018-01-12T16:20:18.728Z,21.97
2018-01-12T16:22:46.214Z,20.30
2018-01-12T16:25:13.648Z,20.97
2018-01-12T16:27:41.084Z,19.30
2018-01-12T16:30:09.292Z,18.27
2018-01-12T16:32:36.789Z,18.70
2018-01-12T16:35:04.199Z,24.42
2018-01-12T16:37:31.624Z,20.07
2018-01-12T16:39:59.933Z,20.40
2018-01-12T16:42:27.348Z,18.33
2018-01-12T16:44:54.792Z,19.60
2018-01-12T16:47:22.237Z,17.93
2018-01-12T16:49:49.682Z,18.93
2018-01-12T16:52:17.096Z,20.40
2018-01-12T16:54:44.623Z,17.80
2018-01-12T16:57:12.343Z,18.53
2018-01-12T16:59:39.779Z,17.47
2018-01-12T17:02:07.256Z,19.67
2018-01-12T17:04:34.724Z,20.93
2018-01-12T17:07:02.152Z,19.53
2018-01-12T17:09:29.637Z,19.97
2018-01-12T17:11:57.083Z,18.97
2018-01-12T17:14:25.275Z,17.97
2018-01-12T17:16:52.719Z,17.67
2018-01-12T17:19:20.203Z,17.70
2018-01-12T17:21:47.831Z,18.90
2018-01-12T17:24:15.294Z,17.60
2018-01-12T17:26:42.757Z,19.27
2018-01-12T17:29:10.189Z,23.80
2018-01-12T17:31:37.670Z,23.70
2018-01-12T17:34:05.171Z,26.40
2018-01-12T17:36:32.627Z,26.37
2018-01-12T17:39:00.144Z,27.23
2018-01-12T17:41:27.914Z,26.80
2018-01-12T17:43:55.340Z,30.17
2018-01-12T17:46:22.819Z,29.20
2018-01-12T17:48:50.275Z,28.47
2018-01-12T17:51:17.708Z,29.20
2018-01-12T17:53:45.192Z,27.73
2018-01-12T17:56:12.648Z,30.27
2018-01-12T17:58:40.108Z,30.57
2018-01-12T18:01:07.545Z,31.07
2018-01-12T18:03:35.329Z,29.27
2018-01-12T18:06:02.784Z,30.17
2018-01-12T18:08:30.215Z,29.60
2018-01-12T18:10:57.656Z,28.43
2018-01-12T18:13:26.796Z,28.60
2018-01-12T18:15:54.297Z,28.07
2018-01-12T18:18:21.730Z,26.87
2018-01-12T18:20:49.264Z,27.17
2018-01-12T18:23:16.743Z,28.70
2018-01-12T18:25:44.132Z,30.23
2018-01-12T18:28:12.352Z,29.83
2018-01-12T18:30:39.812Z,26.63
2018-01-12T18:33:07.262Z,26.00
2018-01-12T18:35:34.723Z,28.33
2018-01-12T18:38:02.156Z,26.93
2018-01-12T18:40:30.455Z,26.27
2018-01-12T18:42:57.884Z,27.60
2018-01-12T18:45:25.318Z,27.60
2018-01-12T18:47:53.552Z,28.33
2018-01-12T18:50:20.980Z,27.27
2018-01-12T18:52:48.415Z,28.60
2018-01-12T18:55:16.681Z,27.13
2018-01-12T18:57:44.876Z,27.53
2018-01-12T19:00:13.073Z,29.07
2018-01-12T19:02:40.518Z,30.33
2018-01-12T19:05:08.000Z,31.77
2018-01-12T19:07:35.474Z,30.60
2018-01-12T19:10:02.905Z,32.97
2018-01-12T19:12:30.324Z,34.90
2018-01-12T19:14:58.520Z,32.00
2018-01-12T19:17:25.969Z,29.37
2018-01-12T19:19:54.187Z,27.50
2018-01-12T19:22:21.632Z,27.93
2018-01-12T19:24:49.064Z,27.90
2018-01-12T19:27:16.528Z,27.37
2018-01-12T19:29:43.955Z,25.20
2018-01-12T19:32:11.466Z,26.93
2018-01-12T19:34:38.928Z,28.00
2018-01-12T19:37:06.360Z,24.87
2018-01-12T19:39:34.157Z,24.30
2018-01-12T19:42:01.568Z,24.70
2018-01-12T19:44:29.000Z,24.03
2018-01-12T19:46:56.516Z,22.43
2018-01-12T19:49:23.963Z,22.80
2018-01-12T19:51:51.396Z,22.50
2018-01-12T19:54:19.091Z,21.90
2018-01-12T19:56:46.524Z,20.67
2018-01-12T19:59:14.006Z,22.60
2018-01-12T20:01:41.768Z,23.90
2018-01-12T20:04:09.209Z,22.57
2018-01-12T20:06:36.632Z,22.63
2018-01-12T20:09:05.095Z,23.20
2018-01-12T20:11:32.504Z,23.53
2018-01-12T20:13:59.944Z,22.70
2018-01-12T20:16:28.462Z,22.97
2018-01-12T20:18:55.888Z,24.63
2018-01-12T20:21:23.404Z,24.07
2018-01-12T20:23:51.140Z,22.77
2018-01-12T20:26:18.572Z,24.00
2018-01-12T20:28:46.006Z,26.20
2018-01-12T20:31:14.552Z,23.10
2018-01-12T20:33:41.992Z,24.13
2018-01-12T20:36:09.428Z,24.10
2018-01-12T20:38:37.102Z,27.23
2018-01-12T20:41:04.570Z,24.07
2018-01-12T20:43:31.999Z,24.10
2018-01-12T20:45:59.789Z,23.60
2018-01-12T20:48:27.248Z,23.40
2018-01-12T20:50:54.680Z,22.93
2018-01-12T20:53:22.361Z,23.70
2018-01-12T20:55:49.788Z,23.13
2018-01-12T20:58:17.240Z,21.57
2018-01-12T21:00:45.551Z,23.33
2018-01-12T21:03:12.984Z,21.73
2018-01-12T21:05:40.415Z,21.43
2018-01-12T21:08:08.614Z,21.63
2018-01-12T21:10:36.111Z,21.97
2018-01-12T21:13:03.539Z,22.60
2018-01-12T21:15:31.224Z,22.07
2018-01-12T21:17:58.676Z,21.87
2018-01-12T21:20:26.174Z,22.83
2018-01-12T21:22:53.617Z,21.10
2018-01-12T21:25:21.155Z,22.17
2018-01-12T21:27:48.613Z,23.03
2018-01-12T21:30:16.376Z,21.37
2018-01-12T21:32:43.840Z,23.50
2018-01-12T21:35:11.311Z,23.87
2018-01-12T21:37:38.864Z,22.30
2018-01-12T21:40:06.312Z,22.17
2018-01-12T21:42:33.744Z,22.23
2018-01-12T21:45:01.524Z,23.10
2018-01-12T21:47:28.948Z,24.10
2018-01-12T21:49:56.379Z,23.20
2018-01-12T21:52:24.923Z,26.13
2018-01-12T21:54:52.372Z,26.23
2018-01-12T21:57:19.810Z,27.73
2018-01-12T21:59:47.341Z,23.83
2018-01-12T22:02:15.603Z,23.70
2018-01-12T22:04:43.031Z,22.70
2018-01-12T22:07:10.493Z,24.33
2018-01-12T22:09:37.916Z,26.07
2018-01-12T22:12:05.406Z,25.63
2018-01-12T22:14:33.164Z,23.37
2018-01-12T22:17:00.592Z,24.00
2018-01-12T22:19:28.780Z,25.03
2018-01-12T22:21:56.212Z,24.60
2018-01-12T22:24:24.442Z,24.00
2018-01-12T22:26:51.881Z,26.27
2018-01-12T22:29:19.340Z,24.80
2018-01-12T22:31:46.777Z,23.13
2018-01-12T22:34:14.216Z,24.23
2018-01-12T22:36:42.419Z,23.40
2018-01-12T22:39:09.877Z,22.07
2018-01-12T22:41:37.276Z,20.07
2018-01-12T22:44:05.018Z,25.00
2018-01-12T22:46:32.432Z,21.97
2018-01-12T22:48:59.917Z,24.67
2018-01-12T22:51:27.399Z,23.73
2018-01-12T22:53:54.891Z,23.30
2018-01-12T22:56:23.084Z,23.10
2018-01-12T22:58:50.994Z,23.80
2018-01-12T23:01:19.262Z,24.03
2018-01-12T23:03:46.684Z,24.57
2018-01-12T23:06:14.212Z,24.07
2018-01-12T23:08:41.736Z,26.03
2018-01-12T23:11:09.174Z,24.70
2018-01-12T23:13:36.944Z,23.27
2018-01-12T23:16:04.424Z,24.53
2018-01-12T23:18:31.853Z,22.80
2018-01-12T23:20:59.318Z,23.70
2018-01-12T23:23:26.748Z,25.00
2018-01-12T23:25:54.254Z,24.00
2018-01-12T23:28:21.677Z,33.43
2018-01-12T23:30:49.168Z,41.70
2018-01-12T23:33:16.577Z,29.40
2018-01-12T23:35:44.016Z,27.43
2018-01-12T23:38:12.211Z,25.50
2018-01-12T23:40:39.640Z,27.20
2018-01-12T23:43:07.860Z,28.00
2018-01-12T23:45:35.335Z,26.93
2018-01-12T23:48:02.785Z,25.90
2018-01-12T23:50:30.238Z,26.47
2018-01-12T23:52:57.667Z,24.80
2018-01-12T23:55:25.120Z,23.57
2018-01-12T23:57:53.323Z,24.20
